Time;durP1;ratioP1;P1;durP2;ratioP2;P2;SDS_P1;SDS_P2;PMS_P1;PMS_P2;Temp;Humidity;BMP_temperature;BMP_pressure;BME280_temperature;BME280_humidity;BME280_pressure;Samples;Min_cycle;Max_cycle;Signal;HPM_P1;HPM_P2
2022/08/24 00:00:08;;;;;;;72.45;62.63;;;;;;;19.08;100.00;101629.91;10415336;28;20037;-86
2022/08/24 00:05:09;;;;;;;75.88;65.15;;;;;;;18.86;100.00;101606.09;10352625;28;20595;-86
2022/08/24 00:10:10;;;;;;;77.70;69.18;;;;;;;19.09;100.00;101653.91;10317397;28;20053;-85
2022/08/24 00:15:11;;;;;;;79.47;69.50;;;;;;;19.05;100.00;101656.44;10333549;28;20065;-84
2022/08/24 00:20:11;;;;;;;76.05;67.75;;;;;;;18.98;100.00;101655.97;10333847;28;20165;-84
2022/08/24 00:25:12;;;;;;;82.75;68.15;;;;;;;18.92;100.00;101660.75;10334541;28;20049;-86
2022/08/24 00:30:14;;;;;;;79.50;67.38;;;;;;;18.86;100.00;101658.28;10365567;28;20046;-84
2022/08/24 00:35:19;;;;;;;88.28;73.57;;;;;;;18.66;100.00;101660.06;10356343;28;20111;-86
2022/08/24 00:40:26;;;;;;;86.30;73.40;;;;;;;18.65;100.00;101664.00;10372993;28;20062;-86
2022/08/24 00:45:26;;;;;;;85.28;71.68;;;;;;;18.69;100.00;101676.22;10398684;28;20408;-84
2022/08/24 00:50:37;;;;;;;88.13;71.50;;;;;;;18.62;100.00;101678.50;10403566;28;20038;-85
2022/08/24 00:55:42;;;;;;;83.63;70.35;;;;;;;18.44;100.00;101657.72;10372395;28;20058;-85
2022/08/24 01:00:45;;;;;;;81.63;70.03;;;;;;;18.50;100.00;101675.22;10339832;28;20034;-84
2022/08/24 01:05:47;;;;;;;87.75;73.20;;;;;;;18.45;100.00;101678.88;10316095;28;20037;-84
2022/08/24 01:10:50;;;;;;;87.88;73.32;;;;;;;18.42;100.00;101685.06;10373056;28;20478;-84
2022/08/24 01:15:52;;;;;;;87.03;68.90;;;;;;;18.22;100.00;101663.69;10401314;28;20041;-84
2022/08/24 01:21:05;;;;;;;83.50;69.28;;;;;;;18.27;100.00;101685.97;10420305;28;20437;-84
2022/08/24 01:26:07;;;;;;;86.13;67.28;;;;;;;18.23;100.00;101686.81;10420760;28;20041;-84
2022/08/24 01:31:07;;;;;;;88.43;70.85;;;;;;;18.10;100.00;101672.38;10397432;28;20390;-83
2022/08/24 01:36:38;;;;;;;90.82;75.63;;;;;;;18.06;100.00;101679.63;10393803;28;20034;-84
2022/08/24 01:41:39;;;;;;;83.13;68.95;;;;;;;18.02;100.00;101678.53;10361122;28;20080;-83
2022/08/24 01:46:58;;;;;;;89.10;71.55;;;;;;;17.92;100.00;101675.78;10379632;28;20115;-83
2022/08/24 01:51:58;;;;;;;84.40;70.03;;;;;;;17.86;100.00;101682.50;10339638;28;20090;-84
2022/08/24 01:56:59;;;;;;;89.35;70.10;;;;;;;17.83;100.00;101688.66;10337023;28;20086;-84
2022/08/24 02:02:15;;;;;;;95.57;72.95;;;;;;;17.70;100.00;101670.56;10340039;28;20546;-84
2022/08/24 02:07:15;;;;;;;84.47;69.28;;;;;;;17.75;100.00;101692.81;10393219;28;20046;-83
2022/08/24 02:12:16;;;;;;;83.80;71.32;;;;;;;17.61;100.00;101675.88;10378060;28;20501;-83
2022/08/24 02:17:17;;;;;;;87.32;70.72;;;;;;;17.62;100.00;101685.91;10376661;28;20037;-82
2022/08/24 02:22:18;;;;;;;96.30;74.82;;;;;;;17.62;100.00;101687.84;10375631;28;20113;-84
2022/08/24 02:27:19;;;;;;;95.05;75.20;;;;;;;17.44;100.00;101680.91;10375702;28;20125;-83
2022/08/24 02:32:19;;;;;;;90.85;72.55;;;;;;;17.58;100.00;101709.84;10375717;28;20063;-83
2022/08/24 02:37:20;;;;;;;95.18;76.28;;;;;;;17.54;100.00;101711.53;10413502;28;20216;-83
2022/08/24 02:42:20;;;;;;;93.22;72.82;;;;;;;17.55;100.00;101716.81;10414894;28;20025;-84
2022/08/24 02:47:21;;;;;;;87.45;70.20;;;;;;;17.44;100.00;101704.00;10415980;28;20072;-80
2022/08/24 02:52:21;;;;;;;89.20;69.55;;;;;;;17.10;100.00;101651.75;10400295;28;20044;-83
2022/08/24 02:57:21;;;;;;;96.03;72.55;;;;;;;17.39;100.00;101706.81;10417133;28;20064;-83
2022/08/24 03:02:22;;;;;;;89.22;71.47;;;;;;;17.28;100.00;101692.09;10400118;28;20040;-83
2022/08/24 03:07:22;;;;;;;87.50;71.55;;;;;;;16.89;100.00;101642.59;10375308;28;20045;-83
2022/08/24 03:12:23;;;;;;;96.57;72.43;;;;;;;17.19;100.00;101696.53;10341008;28;20041;-83
2022/08/24 03:17:23;;;;;;;97.10;75.45;;;;;;;17.23;100.00;101707.94;10357641;28;20030;-83
2022/08/24 03:22:24;;;;;;;92.68;71.38;;;;;;;17.24;100.00;101706.81;10375358;28;20037;-83
2022/08/24 03:27:25;;;;;;;92.90;71.93;;;;;;;17.10;100.00;101701.00;10390042;28;20030;-83
2022/08/24 03:32:26;;;;;;;92.10;72.32;;;;;;;17.08;100.00;101706.84;10390239;28;20402;-80
2022/08/24 03:37:26;;;;;;;93.32;70.40;;;;;;;17.07;100.00;101721.00;10371456;28;20175;-82
2022/08/24 03:42:27;;;;;;;106.18;76.60;;;;;;;16.98;100.00;101700.44;10372081;28;20046;-82
2022/08/24 03:47:27;;;;;;;102.30;76.13;;;;;;;16.96;100.00;101717.41;10374688;28;20061;-82
2022/08/24 03:52:28;;;;;;;103.45;75.20;;;;;;;16.91;100.00;101706.28;10374733;28;20053;-85
2022/08/24 03:57:28;;;;;;;105.45;76.32;;;;;;;17.01;100.00;101725.75;10404185;28;20045;-82
2022/08/24 04:02:29;;;;;;;107.78;78.13;;;;;;;16.98;100.00;101728.25;10413961;28;20104;-82
2022/08/24 04:07:30;;;;;;;106.38;78.18;;;;;;;16.99;100.00;101741.88;10412945;28;20064;-84
2022/08/24 04:12:30;;;;;;;102.47;73.40;;;;;;;16.94;100.00;101739.09;10413498;28;20575;-83
2022/08/24 04:17:31;;;;;;;106.55;74.40;;;;;;;16.86;100.00;101732.13;10413184;28;20033;-76
2022/08/24 04:22:32;;;;;;;104.60;75.68;;;;;;;16.79;100.00;101730.72;10414134;28;20061;-83
2022/08/24 04:27:33;;;;;;;98.25;72.00;;;;;;;16.75;100.00;101730.41;10413695;28;20045;-83
2022/08/24 04:32:34;;;;;;;94.85;70.75;;;;;;;16.74;100.00;101734.28;10412072;28;20127;-81
2022/08/24 04:37:35;;;;;;;90.68;67.13;;;;;;;16.74;100.00;101743.50;10376368;28;20038;-80
2022/08/24 04:42:36;;;;;;;87.07;64.43;;;;;;;16.54;100.00;101724.81;10373109;28;20042;-81
2022/08/24 04:47:36;;;;;;;83.88;65.13;;;;;;;16.68;100.00;101750.16;10394276;28;20050;-82
2022/08/24 04:52:37;;;;;;;89.90;67.65;;;;;;;16.36;100.00;101699.47;10395107;28;20084;-81
2022/08/24 04:57:37;;;;;;;86.80;65.95;;;;;;;16.54;100.00;101735.91;10395390;28;20038;-80
2022/08/24 05:02:40;;;;;;;89.20;68.97;;;;;;;16.68;100.00;101769.59;10394854;28;20030;-82
2022/08/24 05:07:41;;;;;;;86.97;66.85;;;;;;;16.72;100.00;101769.88;10379521;28;20741;-82
2022/08/24 05:12:42;;;;;;;85.63;64.97;;;;;;;16.77;100.00;101772.69;10395166;28;20097;-82
2022/08/24 05:17:42;;;;;;;84.25;65.65;;;;;;;16.79;100.00;101766.84;10379715;28;20064;-83
2022/08/24 05:22:43;;;;;;;91.43;68.38;;;;;;;16.87;100.00;101760.78;10379004;28;20478;-81
2022/08/24 05:27:44;;;;;;;89.03;70.72;;;;;;;16.89;100.00;101755.78;10378833;28;20042;-82
2022/08/24 05:32:45;;;;;;;77.80;63.95;;;;;;;17.01;100.00;101770.28;10397924;28;20068;-82
2022/08/24 05:37:45;;;;;;;76.13;60.42;;;;;;;17.09;100.00;101780.00;10414568;28;20424;-81
2022/08/24 05:42:47;;;;;;;71.65;62.75;;;;;;;17.10;100.00;101754.69;10376243;28;20045;-81
2022/08/24 05:47:47;;;;;;;77.00;64.50;;;;;;;17.43;100.00;101780.31;10376567;28;20069;-81
2022/08/24 05:52:48;;;;;;;71.18;61.13;;;;;;;17.66;100.00;101783.63;10393091;28;20037;-80
2022/08/24 05:57:49;;;;;;;65.40;58.55;;;;;;;17.91;100.00;101785.56;10375612;28;20038;-81
2022/08/24 06:02:52;;;;;;;65.25;56.13;;;;;;;18.18;100.00;101790.78;10393039;28;20045;-79
2022/08/24 06:07:52;;;;;;;61.40;54.70;;;;;;;18.38;100.00;101783.50;10374878;28;20125;-81
2022/08/24 06:12:53;;;;;;;55.80;49.83;;;;;;;18.66;100.00;101785.56;10376880;28;20364;-81
2022/08/24 06:17:53;;;;;;;62.08;53.15;;;;;;;18.79;100.00;101766.56;10376002;28;20030;-80
2022/08/24 06:22:54;;;;;;;58.72;52.35;;;;;;;19.04;100.00;101768.34;10376034;28;20049;-80
2022/08/24 06:27:54;;;;;;;54.35;48.53;;;;;;;19.37;100.00;101789.06;10337849;28;20066;-81
2022/08/24 06:32:58;;;;;;;59.28;51.70;;;;;;;19.59;100.00;101780.19;10333999;28;20401;-81
2022/08/24 06:37:58;;;;;;;56.13;49.08;;;;;;;19.91;100.00;101793.63;10414414;28;20052;-81
2022/08/24 06:43:03;;;;;;;58.35;51.75;;;;;;;20.19;100.00;101785.47;10417215;28;20037;-82
2022/08/24 06:48:03;;;;;;;62.83;54.00;;;;;;;20.56;100.00;101804.31;10414313;28;20041;-80
2022/08/24 06:53:04;;;;;;;63.17;53.63;;;;;;;20.91;100.00;101815.38;10417393;28;20489;-82
2022/08/24 06:58:04;;;;;;;56.50;50.63;;;;;;;21.19;100.00;101807.09;10417764;28;20033;-82
2022/08/24 07:03:05;;;;;;;57.30;51.22;;;;;;;21.20;100.00;101762.00;10431462;28;20037;-80
2022/08/24 07:08:05;;;;;;;57.25;49.95;;;;;;;21.63;100.00;101791.88;10413650;28;20049;-80
2022/08/24 07:13:06;;;;;;;60.53;51.05;;;;;;;21.69;100.00;101763.44;10382375;28;20045;-79
2022/08/24 07:18:08;;;;;;;55.60;49.10;;;;;;;21.92;100.00;101767.22;10381899;28;20049;-81
2022/08/24 07:23:11;;;;;;;53.70;47.85;;;;;;;22.36;100.00;101805.06;10414304;28;20041;-79
2022/08/24 07:28:12;;;;;;;53.88;48.08;;;;;;;22.41;100.00;101795.72;10412578;28;20041;-80
2022/08/24 07:33:12;;;;;;;56.10;49.55;;;;;;;22.49;100.00;101802.56;10412089;28;20034;-81
2022/08/24 07:38:13;;;;;;;54.85;48.78;;;;;;;22.61;100.00;101816.91;10395842;28;20033;-82
2022/08/24 07:43:13;;;;;;;51.80;44.63;;;;;;;22.93;100.00;101817.91;10428246;28;20048;-81
2022/08/24 07:48:14;;;;;;;47.28;39.03;;;;;;;23.20;100.00;101816.19;10415185;28;20049;-79
2022/08/24 07:53:14;;;;;;;42.10;37.78;;;;;;;23.35;100.00;101819.44;10402642;28;20076;-80
2022/08/24 07:58:15;;;;;;;36.47;32.58;;;;;;;23.56;100.00;101808.56;10406938;28;20042;-80
2022/08/24 08:03:15;;;;;;;30.38;27.17;;;;;;;23.91;100.00;101841.69;10335805;28;20041;-79
2022/08/24 08:08:16;;;;;;;26.38;23.60;;;;;;;24.11;100.00;101823.44;10327408;28;20069;-81
2022/08/24 08:13:17;;;;;;;27.75;24.63;;;;;;;24.21;100.00;101817.53;10342874;28;20761;-80
2022/08/24 08:18:18;;;;;;;23.08;17.50;;;;;;;24.61;100.00;101833.59;10343762;28;20038;-80
2022/08/24 08:28:37;;;;;;;20.42;15.98;;;;;;;25.20;100.00;101836.84;10393025;28;20498;-80
2022/08/24 08:33:38;;;;;;;14.07;11.10;;;;;;;25.29;100.00;101834.88;10393255;28;20038;-81
2022/08/24 08:38:38;;;;;;;8.63;7.82;;;;;;;25.53;100.00;101842.00;10379100;28;20042;-81
2022/08/24 08:44:00;;;;;;;13.38;11.63;;;;;;;25.76;100.00;101825.72;10378274;28;20040;-82
2022/08/24 08:49:49;;;;;;;19.15;11.00;;;;;;;25.86;100.00;101842.28;10362409;28;20034;-81
2022/08/24 08:55:07;;;;;;;13.52;8.57;;;;;;;25.97;100.00;101837.97;10379116;28;20045;-80
2022/08/24 09:00:08;;;;;;;17.30;12.77;;;;;;;26.33;100.00;101839.47;10359509;28;20078;-80
2022/08/24 09:05:26;;;;;;;13.65;11.02;;;;;;;26.56;100.00;101839.22;10372629;28;20050;-81
2022/08/24 09:10:48;;;;;;;14.48;10.90;;;;;;;26.75;100.00;101845.28;10376301;28;20109;-80
2022/08/24 09:16:09;;;;;;;15.98;12.02;;;;;;;26.92;100.00;101852.00;10400996;28;20049;-80
2022/08/24 09:21:37;;;;;;;11.93;10.60;;;;;;;27.16;100.00;101849.34;10412581;28;20053;-81
2022/08/24 09:26:46;;;;;;;15.57;12.90;;;;;;;27.38;100.00;101838.88;10415576;28;20048;-81
2022/08/24 09:32:10;;;;;;;15.45;13.82;;;;;;;27.45;98.45;101830.69;10406060;28;20046;-87
2022/08/24 09:37:47;;;;;;;16.98;12.45;;;;;;;27.64;100.00;101840.63;10382348;28;20123;-73
2022/08/24 09:43:05;;;;;;;;;;;;;;;27.91;94.10;101822.25;10401341;28;20045;-82
2022/08/24 09:48:25;;;;;;;9.82;8.82;;;;;;;27.80;92.45;101830.31;10336671;28;20340;-80
2022/08/24 09:53:46;;;;;;;12.25;8.02;;;;;;;28.03;93.99;101841.25;10393918;28;20038;-84
2022/08/24 09:59:28;;;;;;;10.95;8.25;;;;;;;28.26;91.70;101839.63;10381641;28;20036;-84
2022/08/24 10:04:35;;;;;;;8.60;7.15;;;;;;;28.15;86.75;101827.97;10387705;28;20335;-86
2022/08/24 10:10:00;;;;;;;10.73;7.43;;;;;;;28.02;84.53;101822.63;10400658;28;20236;-85
2022/08/24 10:15:28;;;;;;;9.05;7.32;;;;;;;28.38;87.10;101822.66;10436082;28;20079;-82
2022/08/24 10:21:07;;;;;;;12.93;9.15;;;;;;;28.53;85.00;101820.31;10432948;28;20060;-84
2022/08/24 10:26:45;;;;;;;12.60;9.05;;;;;;;28.82;81.54;101810.72;10227460;28;20090;-83
2022/08/24 10:31:47;;;;;;;11.45;7.90;;;;;;;28.81;81.43;101809.06;10422219;28;20044;-84
2022/08/24 10:37:02;;;;;;;10.82;9.30;;;;;;;29.11;81.50;101812.47;10435619;28;20037;-76
2022/08/24 10:48:22;;;;;;;11.52;7.35;;;;;;;29.71;77.01;101800.41;10420931;28;20287;-84
2022/08/24 10:53:29;;;;;;;10.45;5.45;;;;;;;29.66;75.25;101783.59;10404000;28;20049;-84
2022/08/24 10:58:36;;;;;;;12.50;5.35;;;;;;;29.56;76.52;101793.47;10403609;28;20493;-82
2022/08/24 11:03:47;;;;;;;4.03;3.03;;;;;;;30.01;77.92;101791.47;10412942;28;20092;-83
2022/08/24 11:09:02;;;;;;;8.88;3.55;;;;;;;30.59;75.82;101788.88;10404034;28;20034;-83
2022/08/24 11:14:27;;;;;;;7.93;3.55;;;;;;;30.67;74.33;101778.50;10403506;28;20038;-82
2022/08/24 11:19:31;;;;;;;6.63;3.40;;;;;;;30.91;74.12;101766.09;10339138;28;20038;-81
2022/08/24 11:24:41;;;;;;;3.13;2.67;;;;;;;31.40;73.82;101782.56;10356161;28;20559;-83
2022/08/24 11:29:50;;;;;;;6.38;2.45;;;;;;;31.44;70.75;101772.09;10357899;28;20038;-86
2022/08/24 11:34:51;;;;;;;6.10;3.20;;;;;;;31.12;71.30;101766.53;10413648;28;20041;-83
2022/08/24 11:39:51;;;;;;;4.90;2.80;;;;;;;31.05;70.72;101766.38;10430396;28;20057;-77
2022/08/24 11:45:20;;;;;;;8.73;2.80;;;;;;;31.20;71.91;101790.25;10379814;28;20852;-84
2022/08/24 11:50:34;;;;;;;6.10;2.80;;;;;;;31.38;68.97;101757.31;10414109;28;20104;-76
2022/08/24 11:55:56;;;;;;;6.00;2.80;;;;;;;31.58;65.88;101757.28;10408276;28;20034;-76
2022/08/24 12:01:17;;;;;;;4.47;2.20;;;;;;;32.18;65.57;101759.59;10414104;28;20037;-83
2022/08/24 12:06:18;;;;;;;4.00;3.00;;;;;;;32.99;64.42;101761.19;10396231;28;20477;-84
2022/08/24 12:11:51;;;;;;;4.70;3.30;;;;;;;33.78;62.91;101762.16;10415109;28;20042;-84
2022/08/24 12:17:10;;;;;;;5.38;2.30;;;;;;;34.55;59.28;101745.22;10401784;28;20044;-87
2022/08/24 12:22:11;;;;;;;4.20;1.98;;;;;;;33.54;59.87;101738.63;10370679;28;20069;-87
2022/08/24 12:27:20;;;;;;;6.07;2.25;;;;;;;33.13;62.98;101755.69;10354435;28;20046;-88
2022/08/24 12:32:29;;;;;;;4.70;2.20;;;;;;;34.70;58.96;101734.72;10388806;28;20034;-86
2022/08/24 12:37:32;;;;;;;4.50;2.05;;;;;;;35.91;55.54;101734.25;10355479;28;20038;-86
2022/08/24 12:42:35;;;;;;;3.60;1.83;;;;;;;36.17;53.01;101721.56;10346054;28;20501;-86
2022/08/24 12:47:54;;;;;;;4.53;1.55;;;;;;;36.81;52.29;101722.66;10392497;28;20051;-84
2022/08/24 12:53:02;;;;;;;2.70;1.60;;;;;;;37.19;49.79;101711.44;10372851;28;20040;-86
2022/08/24 12:58:29;;;;;;;1.63;1.27;;;;;;;36.87;49.51;101714.44;10355245;28;20026;-86
2022/08/24 13:03:37;;;;;;;4.00;1.98;;;;;;;37.47;48.94;101712.47;10355456;28;20089;-87
2022/08/24 13:08:40;;;;;;;2.88;1.70;;;;;;;37.41;47.57;101654.66;10359598;28;20405;-85
2022/08/24 13:13:44;;;;;;;3.40;1.92;;;;;;;38.33;46.83;101703.16;10359917;28;20042;-84
2022/08/24 13:18:47;;;;;;;2.35;1.48;;;;;;;37.42;46.37;101710.88;10344640;28;20052;-77
2022/08/24 13:24:10;;;;;;;4.97;1.70;;;;;;;36.69;48.07;101706.75;10362428;28;20108;-80
2022/08/24 13:29:10;;;;;;;2.95;1.50;;;;;;;36.65;47.77;101700.19;10362299;28;20048;-82
2022/08/24 13:34:15;;;;;;;3.28;1.40;;;;;;;36.62;47.18;101701.00;10376237;28;20121;-84
2022/08/24 13:39:24;;;;;;;2.42;1.90;;;;;;;37.03;45.59;101696.75;10355669;28;20053;-82
2022/08/24 13:44:38;;;;;;;4.18;1.67;;;;;;;37.12;46.63;101700.81;10335960;28;20413;-80
2022/08/24 13:50:00;;;;;;;4.22;1.38;;;;;;;36.68;46.50;101699.34;10351642;28;20045;-83
2022/08/24 13:55:07;;;;;;;2.33;1.48;;;;;;;36.32;48.25;101705.19;10409804;28;20056;-83
2022/08/24 14:00:17;;;;;;;2.58;1.60;;;;;;;36.57;47.58;101701.44;10359968;28;20116;-83
2022/08/24 14:05:37;;;;;;;3.80;1.65;;;;;;;36.63;47.56;101708.41;10413933;28;20037;-81
2022/08/24 14:11:05;;;;;;;5.43;1.40;;;;;;;36.49;48.98;101709.22;10417160;28;20041;-82
2022/08/24 14:21:41;;;;;;;1.95;1.40;;;;;;;33.04;54.71;101732.34;10416436;28;20101;-77
2022/08/24 14:26:42;;;;;;;6.45;1.40;;;;;;;32.93;54.89;101731.38;10392714;28;20076;-75
2022/08/24 14:31:52;;;;;;;2.95;1.50;;;;;;;33.19;56.20;101739.06;10376465;28;20498;-75
2022/08/24 14:37:17;;;;;;;3.08;1.42;;;;;;;33.73;51.82;101708.25;10352886;28;20034;-77
2022/08/24 14:42:38;;;;;;;2.55;1.23;;;;;;;35.24;50.95;101700.59;10374530;28;20034;-75
2022/08/24 14:47:57;;;;;;;2.00;1.30;;;;;;;36.40;47.87;101691.63;10334386;28;20426;-75
2022/08/24 14:53:53;;;;;;;3.75;1.40;;;;;;;36.78;48.00;101689.06;10350285;28;20053;-75
2022/08/24 14:59:26;;;;;;;5.72;1.38;;;;;;;36.91;45.96;101669.31;10274861;28;20163;-77
2022/08/24 15:04:32;;;;;;;4.78;1.30;;;;;;;36.35;48.14;101677.72;10318126;28;20088;-76
2022/08/24 15:09:35;;;;;;;4.72;1.50;;;;;;;36.70;46.67;101673.94;10333326;28;20062;-76
2022/08/24 15:15:20;;;;;;;3.05;1.50;;;;;;;37.01;46.66;101665.59;10357590;28;20042;-76
2022/08/24 15:20:38;;;;;;;5.38;1.83;;;;;;;37.56;44.78;101659.06;10401774;28;20041;-78
2022/08/24 15:25:51;;;;;;;4.15;1.58;;;;;;;37.98;43.68;101650.50;10373760;28;20038;-77
2022/08/24 15:31:05;;;;;;;3.35;1.38;;;;;;;38.30;42.53;101643.59;10393961;28;20052;-77
2022/08/24 15:36:11;;;;;;;1.35;1.25;;;;;;;38.22;41.87;101639.19;10340845;28;20812;-77
2022/08/24 15:41:27;;;;;;;2.33;1.25;;;;;;;39.39;41.02;101644.59;10408678;28;20129;-76
2022/08/24 15:46:37;;;;;;;4.32;1.67;;;;;;;39.23;40.08;101624.28;10412544;28;20045;-76
2022/08/24 15:51:41;;;;;;;2.92;1.55;;;;;;;39.30;39.95;101645.16;10427560;28;20045;-75
2022/08/24 15:56:49;;;;;;;3.55;1.30;;;;;;;38.77;40.09;101638.09;10435348;28;20841;-76
2022/08/24 16:07:33;;;;;;;2.67;1.42;;;;;;;37.89;41.51;101642.38;10436311;28;20079;-77
2022/08/24 16:12:33;;;;;;;4.00;1.38;;;;;;;36.58;44.84;101653.47;10423432;28;20060;-79
2022/08/24 16:17:37;;;;;;;3.17;1.10;;;;;;;35.28;47.42;101661.34;10435395;28;20036;-78
2022/08/24 16:22:39;;;;;;;2.72;1.02;;;;;;;33.87;49.17;101654.09;10412678;28;20044;-78
2022/08/24 16:27:58;;;;;;;2.05;1.25;;;;;;;32.50;52.18;101677.44;10395994;28;20072;-78
2022/08/24 16:32:58;;;;;;;3.15;1.40;;;;;;;31.38;56.31;101688.22;10403540;28;20473;-78
2022/08/24 16:37:59;;;;;;;3.53;1.33;;;;;;;30.66;56.83;101686.75;10411431;28;20045;-79
2022/08/24 16:43:00;;;;;;;2.40;1.58;;;;;;;30.15;60.66;101703.81;10380589;28;20041;-78
2022/08/24 16:48:00;;;;;;;4.00;1.58;;;;;;;29.67;61.75;101702.97;10411959;28;20409;-80
2022/08/24 16:53:00;;;;;;;3.13;1.27;;;;;;;29.58;62.30;101701.16;10392058;28;20029;-79
2022/08/24 16:58:01;;;;;;;3.05;1.63;;;;;;;29.43;62.65;101704.78;10400237;28;20034;-78
2022/08/24 17:03:01;;;;;;;4.68;2.53;;;;;;;29.12;64.05;101706.34;10390382;28;20057;-79
2022/08/24 17:08:02;;;;;;;4.97;1.95;;;;;;;28.88;66.30;101704.44;10384500;28;20046;-78
2022/08/24 17:13:03;;;;;;;4.47;2.10;;;;;;;28.68;68.27;101703.44;10385787;28;20038;-78
2022/08/24 17:18:05;;;;;;;4.80;1.95;;;;;;;28.51;68.10;101710.19;10404558;28;20056;-72
2022/08/24 17:23:07;;;;;;;6.57;2.47;;;;;;;28.43;69.30;101719.63;10381620;28;20044;-80
2022/08/24 17:28:09;;;;;;;5.20;2.25;;;;;;;28.27;68.75;101710.22;10365489;28;20094;-78
2022/08/24 17:33:09;;;;;;;4.32;2.38;;;;;;;28.13;72.96;101716.22;10389444;28;20038;-80
2022/08/24 17:38:10;;;;;;;6.55;2.10;;;;;;;27.85;75.41;101735.91;10373058;28;20046;-79
2022/08/24 17:43:11;;;;;;;4.80;2.50;;;;;;;27.60;76.98;101733.03;10403810;28;20056;-80
2022/08/24 17:48:13;;;;;;;8.68;2.70;;;;;;;27.40;78.88;101734.72;10396895;28;20072;-79
2022/08/24 17:53:14;;;;;;;4.47;2.35;;;;;;;27.16;80.16;101722.13;10391250;28;20045;-77
2022/08/24 17:58:14;;;;;;;6.32;2.85;;;;;;;27.17;84.75;101754.88;10407544;28;20030;-73
2022/08/24 18:03:15;;;;;;;6.15;2.42;;;;;;;26.95;86.91;101741.09;10363736;28;20030;-72
2022/08/24 18:08:15;;;;;;;5.13;2.70;;;;;;;26.70;87.13;101738.16;10355885;28;20065;-73
2022/08/24 18:13:16;;;;;;;4.95;3.40;;;;;;;26.63;89.44;101768.94;10341584;28;20030;-73
2022/08/24 18:18:16;;;;;;;7.00;2.60;;;;;;;26.49;93.51;101768.34;10351193;28;20142;-74
2022/08/24 18:23:17;;;;;;;6.78;2.70;;;;;;;26.39;96.95;101775.19;10348245;28;20034;-75
2022/08/24 18:28:17;;;;;;;7.88;3.40;;;;;;;26.15;99.42;101764.56;10336984;28;20030;-75
2022/08/24 18:33:18;;;;;;;6.18;3.13;;;;;;;26.10;100.00;101793.75;10347033;28;20061;-74
2022/08/24 18:38:18;;;;;;;6.63;3.28;;;;;;;25.94;100.00;101804.78;10359843;28;20065;-74
2022/08/24 18:43:20;;;;;;;7.95;3.38;;;;;;;25.73;100.00;101798.16;10380292;28;20045;-75
2022/08/24 18:48:21;;;;;;;7.70;3.50;;;;;;;25.57;100.00;101804.34;10370109;28;20053;-74
2022/08/24 18:53:23;;;;;;;4.45;3.53;;;;;;;25.39;100.00;101799.91;10348758;28;20031;-74
2022/08/24 18:58:23;;;;;;;6.07;3.40;;;;;;;25.43;100.00;101817.81;10316883;28;20434;-74
2022/08/24 19:03:24;;;;;;;5.93;3.75;;;;;;;25.16;100.00;101797.22;10356665;28;20026;-74
2022/08/24 19:08:24;;;;;;;11.35;3.35;;;;;;;25.18;100.00;101831.53;10357009;28;20071;-74
2022/08/24 19:13:25;;;;;;;6.25;3.30;;;;;;;24.98;100.00;101816.09;10333855;28;20034;-74
2022/08/24 19:18:25;;;;;;;6.35;3.00;;;;;;;24.87;100.00;101823.22;10338372;28;20036;-75
2022/08/24 19:23:27;;;;;;;4.78;3.00;;;;;;;24.80;100.00;101822.03;10357256;28;20042;-75
2022/08/24 19:28:28;;;;;;;7.13;3.75;;;;;;;24.61;100.00;101820.34;10341418;28;20038;-74
2022/08/24 19:33:32;;;;;;;7.35;3.30;;;;;;;24.40;100.00;101817.28;10349350;28;20491;-73
2022/08/24 19:38:33;;;;;;;6.10;3.83;;;;;;;24.13;100.00;101781.75;10330011;28;20041;-74
2022/08/24 19:43:34;;;;;;;5.95;3.90;;;;;;;24.31;100.00;101827.66;10343402;28;20095;-75
2022/08/24 19:48:40;;;;;;;8.93;3.83;;;;;;;24.10;100.00;101824.59;10357580;28;20530;-75
2022/08/24 19:53:41;;;;;;;6.57;3.70;;;;;;;24.04;100.00;101839.94;10331981;28;20041;-76
2022/08/24 19:58:45;;;;;;;6.88;3.45;;;;;;;23.93;100.00;101834.59;10341284;28;20279;-75
2022/08/24 20:03:45;;;;;;;5.45;3.45;;;;;;;23.86;100.00;101839.84;10387640;28;20057;-75
2022/08/24 20:08:46;;;;;;;5.80;3.13;;;;;;;23.80;100.00;101829.06;10369253;28;20049;-75
2022/08/24 20:13:47;;;;;;;8.82;4.15;;;;;;;23.72;100.00;101834.25;10397663;28;20049;-74
2022/08/24 20:18:47;;;;;;;7.65;3.17;;;;;;;23.61;100.00;101827.25;10376693;28;20034;-75
2022/08/24 20:23:48;;;;;;;5.28;3.38;;;;;;;23.54;100.00;101822.09;10309468;28;20038;-76
2022/08/24 20:28:49;;;;;;;6.40;3.33;;;;;;;23.57;100.00;101832.69;10399538;28;20053;-73
2022/08/24 20:33:50;;;;;;;8.68;3.40;;;;;;;23.48;100.00;101829.00;10393484;28;20034;-75
2022/08/24 20:38:51;;;;;;;5.05;3.08;;;;;;;23.36;100.00;101831.53;10337981;28;20031;-75
2022/08/24 20:43:52;;;;;;;9.45;3.97;;;;;;;23.33;100.00;101840.59;10367370;28;20069;-75
2022/08/24 20:48:53;;;;;;;5.03;3.67;;;;;;;23.26;100.00;101843.03;10334149;28;20484;-76
2022/08/24 20:53:54;;;;;;;8.00;3.70;;;;;;;23.15;100.00;101820.78;10367854;28;20034;-74
2022/08/24 20:58:54;;;;;;;8.13;4.25;;;;;;;23.08;100.00;101820.38;10324487;28;20464;-74
2022/08/24 21:03:55;;;;;;;7.88;4.13;;;;;;;23.12;100.00;101831.81;10365792;28;20027;-75
2022/08/24 21:08:56;;;;;;;7.97;3.72;;;;;;;23.03;100.00;101826.13;10351475;28;20046;-73
2022/08/24 21:13:56;;;;;;;8.38;3.65;;;;;;;23.00;100.00;101834.31;10351856;28;20030;-71
2022/08/24 21:18:57;;;;;;;8.27;4.28;;;;;;;22.93;100.00;101845.97;10337206;28;20034;-73
2022/08/24 21:23:57;;;;;;;8.07;3.85;;;;;;;22.84;100.00;101831.88;10334737;28;20065;-74
2022/08/24 21:28:58;;;;;;;8.48;4.45;;;;;;;22.75;100.00;101845.78;10341991;28;20038;-73
2022/08/24 21:39:17;;;;;;;9.75;4.63;;;;;;;22.45;100.00;101836.03;10374009;28;20042;-74
2022/08/24 21:44:17;;;;;;;8.18;5.25;;;;;;;22.33;100.00;101839.38;10376185;28;20038;-74
2022/08/24 21:49:19;;;;;;;8.02;4.90;;;;;;;22.15;100.00;101843.88;10356511;28;20031;-74
2022/08/24 21:54:19;;;;;;;6.97;5.47;;;;;;;22.10;100.00;101843.97;10336257;28;20038;-74
2022/08/24 21:59:20;;;;;;;9.48;5.68;;;;;;;21.94;100.00;101832.22;10374304;28;20038;-74
2022/08/24 22:04:20;;;;;;;9.55;5.53;;;;;;;21.91;100.00;101854.41;10342945;28;20053;-75
2022/08/24 22:09:21;;;;;;;8.57;5.43;;;;;;;21.80;100.00;101836.94;10325397;28;20038;-75
2022/08/24 22:14:21;;;;;;;7.47;5.15;;;;;;;21.72;100.00;101829.25;10348053;28;20043;-72
2022/08/24 22:19:22;;;;;;;8.93;4.88;;;;;;;21.69;100.00;101829.88;10346418;28;20045;-74
2022/08/24 22:24:22;;;;;;;9.02;5.15;;;;;;;21.34;100.00;101784.47;10301819;28;20042;-75
2022/08/24 22:29:23;;;;;;;8.98;4.97;;;;;;;21.61;100.00;101827.78;10347504;28;20039;-74
2022/08/24 22:34:24;;;;;;;8.38;5.07;;;;;;;21.54;100.00;101825.38;10342126;28;20034;-74
2022/08/24 22:39:24;;;;;;;7.10;4.70;;;;;;;21.43;100.00;101821.88;10343318;28;20383;-74
2022/08/24 22:44:26;;;;;;;8.10;5.00;;;;;;;21.46;100.00;101820.47;10354468;28;20046;-75
2022/08/24 22:49:29;;;;;;;9.18;4.95;;;;;;;21.43;100.00;101827.47;10349306;28;20038;-74
2022/08/24 22:54:29;;;;;;;10.13;4.90;;;;;;;21.33;100.00;101820.06;10339613;28;20035;-74
2022/08/24 22:59:35;;;;;;;11.23;5.05;;;;;;;21.24;100.00;101819.06;10355769;28;20065;-74
2022/08/24 23:04:36;;;;;;;10.83;4.87;;;;;;;21.14;100.00;101820.06;10336815;28;20103;-75
2022/08/24 23:09:37;;;;;;;7.90;5.18;;;;;;;21.05;100.00;101815.47;10346232;28;20658;-75
2022/08/24 23:14:38;;;;;;;9.63;3.97;;;;;;;21.00;100.00;101807.97;10329736;28;20034;-74
2022/08/24 23:24:58;;;;;;;7.50;4.07;;;;;;;20.78;100.00;101808.56;10371954;28;20093;-74
2022/08/24 23:29:58;;;;;;;5.40;3.80;;;;;;;20.79;100.00;101817.78;10372990;28;20089;-73